Time;durP1;ratioP1;P1;durP2;ratioP2;P2;SDS_P1;SDS_P2;PMS_P1;PMS_P2;Temp;Humidity;BMP_temperature;BMP_pressure;BME280_temperature;BME280_humidity;BME280_pressure;Samples;Min_cycle;Max_cycle;Signal;HPM_P1;HPM_P2
2023/05/27 00:00:36;;;;;;;9.63;4.77;;;;;;;;;;5081076;28;20244;-64
2023/05/27 00:03:03;;;;;;;7.23;4.70;;;;;;;;;;5080811;28;20198;-62
2023/05/27 00:05:31;;;;;;;10.10;4.23;;;;;;;;;;5084033;28;20578;-61
2023/05/27 00:07:58;;;;;;;10.47;4.97;;;;;;;;;;5083520;28;20213;-62
2023/05/27 00:10:25;;;;;;;10.27;4.88;;;;;;;;;;5087082;28;20224;-62
2023/05/27 00:12:52;;;;;;;7.40;4.40;;;;;;;;;;5090284;28;20257;-61
2023/05/27 00:15:20;;;;;;;11.47;5.03;;;;;;;;;;5092843;28;20208;-62
2023/05/27 00:17:47;;;;;;;7.13;4.77;;;;;;;;;;5067226;28;20465;-62
2023/05/27 00:20:15;;;;;;;7.40;4.80;;;;;;;;;;5080395;28;20225;-63
2023/05/27 00:22:43;;;;;;;7.83;4.40;;;;;;;;;;5088270;28;20200;-61
2023/05/27 00:25:10;;;;;;;13.63;5.07;;;;;;;;;;5080531;28;20212;-60
2023/05/27 00:27:37;;;;;;;9.43;4.63;;;;;;;;;;5089125;28;20265;-61
2023/05/27 00:30:05;;;;;;;8.07;4.40;;;;;;;;;;5084250;28;20217;-61
2023/05/27 00:32:32;;;;;;;15.23;5.13;;;;;;;;;;5080979;28;20684;-62
2023/05/27 00:35:00;;;;;;;10.40;4.43;;;;;;;;;;5083948;28;20220;-61
2023/05/27 00:37:27;;;;;;;8.40;4.63;;;;;;;;;;5076487;28;20208;-62
2023/05/27 00:39:54;;;;;;;16.23;5.43;;;;;;;;;;5086427;28;20700;-62
2023/05/27 00:42:22;;;;;;;8.77;4.53;;;;;;;;;;5085415;28;20192;-62
2023/05/27 00:44:49;;;;;;;7.40;4.57;;;;;;;;;;5085335;28;20200;-63
2023/05/27 00:47:16;;;;;;;8.37;4.37;;;;;;;;;;5082856;28;20755;-62
2023/05/27 00:49:44;;;;;;;9.63;4.90;;;;;;;;;;5058318;28;20690;-62
2023/05/27 00:52:13;;;;;;;7.90;4.53;;;;;;;;;;5087795;28;20694;-62
2023/05/27 00:54:41;;;;;;;9.43;4.60;;;;;;;;;;5089633;28;20228;-62
2023/05/27 00:57:08;;;;;;;11.33;4.77;;;;;;;;;;5083943;28;20258;-62
2023/05/27 00:59:36;;;;;;;7.90;4.60;;;;;;;;;;5085303;28;20262;-62
2023/05/27 01:02:03;;;;;;;8.27;4.87;;;;;;;;;;5082367;28;20600;-62
2023/05/27 01:04:31;;;;;;;10.67;4.70;;;;;;;;;;5069546;28;20658;-62
2023/05/27 01:07:08;;;;;;;8.07;4.70;;;;;;;;;;5083642;28;20208;-62
2023/05/27 01:09:50;;;;;;;7.87;5.03;;;;;;;;;;5081085;28;20319;-62
2023/05/27 01:12:26;;;;;;;8.37;4.87;;;;;;;;;;5082777;28;20571;-62
2023/05/27 01:14:54;;;;;;;7.93;4.70;;;;;;;;;;5082821;28;20224;-62
2023/05/27 01:17:24;;;;;;;12.70;5.07;;;;;;;;;;5061538;28;20208;-62
2023/05/27 01:19:53;;;;;;;9.93;5.03;;;;;;;;;;5086407;28;20587;-60
2023/05/27 01:22:20;;;;;;;8.67;4.80;;;;;;;;;;5070932;28;20197;-61
2023/05/27 01:24:48;;;;;;;9.87;4.57;;;;;;;;;;5079494;28;20671;-62
2023/05/27 01:27:15;;;;;;;11.57;4.90;;;;;;;;;;5079991;28;20213;-61
2023/05/27 01:29:43;;;;;;;10.20;5.07;;;;;;;;;;5082274;28;20247;-61
2023/05/27 01:32:19;;;;;;;8.93;4.43;;;;;;;;;;5077573;28;20548;-61
2023/05/27 01:34:46;;;;;;;11.27;4.80;;;;;;;;;;5085883;28;20219;-61
2023/05/27 01:37:14;;;;;;;9.03;4.53;;;;;;;;;;5089125;28;20584;-61
2023/05/27 01:39:42;;;;;;;8.83;4.33;;;;;;;;;;5080653;28;20247;-62
2023/05/27 01:42:09;;;;;;;9.60;4.23;;;;;;;;;;5083515;28;20241;-61
2023/05/27 01:44:36;;;;;;;7.77;3.87;;;;;;;;;;5078272;28;20568;-59
2023/05/27 01:47:04;;;;;;;7.70;4.20;;;;;;;;;;5087089;28;20201;-60
2023/05/27 01:49:32;;;;;;;7.73;4.43;;;;;;;;;;5084966;28;20224;-61
2023/05/27 01:51:59;;;;;;;7.97;4.67;;;;;;;;;;5084191;28;20227;-61
2023/05/27 01:54:26;;;;;;;8.33;4.20;;;;;;;;;;5081854;28;20220;-61
2023/05/27 01:56:53;;;;;;;8.17;4.30;;;;;;;;;;5084682;28;20197;-61
2023/05/27 01:59:21;;;;;;;12.33;4.30;;;;;;;;;;5086141;28;20229;-61
2023/05/27 02:01:48;;;;;;;9.33;4.33;;;;;;;;;;5085234;28;20266;-63
2023/05/27 02:04:16;;;;;;;8.97;4.10;;;;;;;;;;5090909;28;20223;-62
2023/05/27 02:06:45;;;;;;;7.83;3.80;;;;;;;;;;5081502;28;20205;-62
2023/05/27 02:09:13;;;;;;;9.07;4.30;;;;;;;;;;5078477;28;20316;-61
2023/05/27 02:11:40;;;;;;;11.63;4.53;;;;;;;;;;5093030;28;20201;-59
2023/05/27 02:14:08;;;;;;;7.47;4.10;;;;;;;;;;5083276;28;20220;-59
2023/05/27 02:16:36;;;;;;;8.37;4.27;;;;;;;;;;5082305;28;20197;-62
2023/05/27 02:19:04;;;;;;;8.30;4.03;;;;;;;;;;5088743;28;20221;-62
2023/05/27 02:21:32;;;;;;;9.87;4.23;;;;;;;;;;5085111;28;20612;-61
2023/05/27 02:23:59;;;;;;;9.90;4.10;;;;;;;;;;5084962;28;20205;-62
2023/05/27 02:26:26;;;;;;;8.50;4.33;;;;;;;;;;5086277;28;20342;-61
2023/05/27 02:28:54;;;;;;;8.90;4.13;;;;;;;;;;5095327;28;20227;-61
2023/05/27 02:31:22;;;;;;;9.13;4.50;;;;;;;;;;5082591;28;20209;-60
2023/05/27 02:33:49;;;;;;;7.60;4.23;;;;;;;;;;5095827;28;20224;-62
2023/05/27 02:36:17;;;;;;;10.40;4.30;;;;;;;;;;5085174;28;20200;-62
2023/05/27 02:38:44;;;;;;;8.63;4.23;;;;;;;;;;5071026;28;20602;-62
2023/05/27 02:41:12;;;;;;;11.40;4.60;;;;;;;;;;5068498;28;20499;-61
2023/05/27 02:43:39;;;;;;;9.17;4.40;;;;;;;;;;5091102;28;20465;-63
2023/05/27 02:46:06;;;;;;;10.47;4.03;;;;;;;;;;5097240;28;20196;-62
2023/05/27 02:48:34;;;;;;;10.87;4.20;;;;;;;;;;5087154;28;20239;-62
2023/05/27 02:51:01;;;;;;;9.70;4.80;;;;;;;;;;5086292;28;20603;-62
2023/05/27 02:53:28;;;;;;;9.03;4.00;;;;;;;;;;5088515;28;20306;-61
2023/05/27 02:55:55;;;;;;;6.40;3.87;;;;;;;;;;5084256;28;20197;-62
2023/05/27 02:58:23;;;;;;;7.83;4.13;;;;;;;;;;5088563;28;20210;-60
2023/05/27 03:00:50;;;;;;;10.43;5.03;;;;;;;;;;5084998;28;20233;-60
2023/05/27 03:03:20;;;;;;;9.27;4.57;;;;;;;;;;5078132;28;20209;-62
2023/05/27 03:05:48;;;;;;;8.73;4.07;;;;;;;;;;5072289;28;20608;-62
2023/05/27 03:08:16;;;;;;;9.80;4.30;;;;;;;;;;5092760;28;20209;-60
2023/05/27 03:10:43;;;;;;;10.00;4.23;;;;;;;;;;5085275;28;20628;-61
2023/05/27 03:13:10;;;;;;;8.93;4.37;;;;;;;;;;5084611;28;20204;-61
2023/05/27 03:15:38;;;;;;;7.43;3.90;;;;;;;;;;5084906;28;20213;-60
2023/05/27 03:18:05;;;;;;;10.87;4.13;;;;;;;;;;5087860;28;20271;-59
2023/05/27 03:20:33;;;;;;;10.07;4.37;;;;;;;;;;5067112;28;20248;-60
2023/05/27 03:23:00;;;;;;;8.97;4.20;;;;;;;;;;5087931;28;20201;-60
2023/05/27 03:25:28;;;;;;;10.73;4.70;;;;;;;;;;5090861;28;20217;-60
2023/05/27 03:27:56;;;;;;;10.07;4.80;;;;;;;;;;5075711;28;20209;-61
2023/05/27 03:30:23;;;;;;;9.37;4.50;;;;;;;;;;5091509;28;20224;-62
2023/05/27 03:32:50;;;;;;;8.97;4.30;;;;;;;;;;5089299;28;20683;-62
2023/05/27 03:35:18;;;;;;;8.37;4.47;;;;;;;;;;5088016;28;20700;-60
2023/05/27 03:37:45;;;;;;;11.57;4.70;;;;;;;;;;5087732;28;20698;-60
2023/05/27 03:40:13;;;;;;;8.93;4.30;;;;;;;;;;5082447;28;20594;-61
2023/05/27 03:42:40;;;;;;;9.33;4.33;;;;;;;;;;5084995;28;20204;-60
2023/05/27 03:45:08;;;;;;;11.03;4.50;;;;;;;;;;5094463;28;20201;-61
2023/05/27 03:47:35;;;;;;;8.87;4.80;;;;;;;;;;5085526;28;20204;-60
2023/05/27 03:50:03;;;;;;;9.57;4.70;;;;;;;;;;5086493;28;20220;-60
2023/05/27 03:52:30;;;;;;;9.30;4.37;;;;;;;;;;5079938;28;20623;-61
2023/05/27 03:54:58;;;;;;;9.47;4.60;;;;;;;;;;5093033;28;20510;-61
2023/05/27 03:57:25;;;;;;;10.00;5.93;;;;;;;;;;5091416;28;20650;-60
2023/05/27 03:59:52;;;;;;;8.93;5.07;;;;;;;;;;5078576;28;20229;-59
2023/05/27 04:02:20;;;;;;;10.57;4.90;;;;;;;;;;5083438;28;20559;-62
2023/05/27 04:04:47;;;;;;;14.07;7.30;;;;;;;;;;5091739;28;20204;-61
2023/05/27 04:07:17;;;;;;;11.23;6.07;;;;;;;;;;5083606;28;20213;-61
2023/05/27 04:09:45;;;;;;;11.67;6.30;;;;;;;;;;5095178;28;20656;-60
2023/05/27 04:12:12;;;;;;;8.50;5.93;;;;;;;;;;5081688;28;20269;-59
2023/05/27 04:14:39;;;;;;;6.77;5.10;;;;;;;;;;5081455;28;20258;-60
2023/05/27 04:17:06;;;;;;;10.87;5.10;;;;;;;;;;5074274;28;20203;-60
2023/05/27 04:19:34;;;;;;;10.07;5.43;;;;;;;;;;5082617;28;20220;-61
2023/05/27 04:22:02;;;;;;;7.53;4.50;;;;;;;;;;5084523;28;20211;-62
2023/05/27 04:24:29;;;;;;;5.80;4.47;;;;;;;;;;5084122;28;20214;-61
2023/05/27 04:26:56;;;;;;;8.37;4.83;;;;;;;;;;5079022;28;20202;-62
2023/05/27 04:29:24;;;;;;;10.20;5.00;;;;;;;;;;5092659;28;20343;-62
2023/05/27 04:31:51;;;;;;;9.57;5.23;;;;;;;;;;5083985;28;20205;-61
2023/05/27 04:34:19;;;;;;;9.60;4.73;;;;;;;;;;5087315;28;20241;-61
2023/05/27 04:36:49;;;;;;;9.57;5.00;;;;;;;;;;5083556;28;20878;-62
2023/05/27 04:39:18;;;;;;;8.50;5.10;;;;;;;;;;5079324;28;20229;-62
2023/05/27 04:41:46;;;;;;;11.73;5.47;;;;;;;;;;5079540;28;20568;-61
2023/05/27 04:44:13;;;;;;;8.83;5.63;;;;;;;;;;5090318;28;20624;-61
2023/05/27 04:46:43;;;;;;;9.47;5.03;;;;;;;;;;5091590;28;20701;-62
2023/05/27 04:49:11;;;;;;;10.83;4.87;;;;;;;;;;5080501;28;20248;-62
2023/05/27 04:51:38;;;;;;;13.20;5.40;;;;;;;;;;5080280;28;20205;-61
2023/05/27 04:54:05;;;;;;;11.60;5.50;;;;;;;;;;5086049;28;20711;-62
2023/05/27 04:56:33;;;;;;;8.93;5.07;;;;;;;;;;5081573;28;20209;-61
2023/05/27 04:59:00;;;;;;;9.40;5.07;;;;;;;;;;5081446;28;20225;-60
2023/05/27 05:01:29;;;;;;;8.80;5.13;;;;;;;;;;5083542;28;20197;-62
2023/05/27 05:04:11;;;;;;;9.40;4.77;;;;;;;;;;5070056;28;20339;-60
2023/05/27 05:06:40;;;;;;;13.83;5.80;;;;;;;;;;5082871;28;20239;-60
2023/05/27 05:09:09;;;;;;;11.20;5.30;;;;;;;;;;5090153;28;20217;-60
2023/05/27 05:11:36;;;;;;;10.97;5.63;;;;;;;;;;5081024;28;20201;-63
2023/05/27 05:14:03;;;;;;;9.20;4.63;;;;;;;;;;5088714;28;20246;-63
2023/05/27 05:16:31;;;;;;;14.07;5.97;;;;;;;;;;5086270;28;20205;-61
2023/05/27 05:18:58;;;;;;;9.00;5.00;;;;;;;;;;5073082;28;20308;-63
2023/05/27 05:21:25;;;;;;;7.90;5.03;;;;;;;;;;5089151;28;20196;-62
2023/05/27 05:23:53;;;;;;;10.93;5.30;;;;;;;;;;5063559;28;20201;-62
2023/05/27 05:26:20;;;;;;;9.73;5.40;;;;;;;;;;5084699;28;20201;-60
2023/05/27 05:28:47;;;;;;;8.85;5.15;;;;;;;;;;5066007;28;20659;-61
2023/05/27 05:31:15;;;;;;;8.18;5.47;;;;;;;;;;5080727;28;20254;-60
2023/05/27 05:33:42;;;;;;;9.23;5.20;;;;;;;;;;5084396;28;20209;-62
2023/05/27 05:36:09;;;;;;;8.05;4.60;;;;;;;;;;5083332;28;20233;-62
2023/05/27 05:38:37;;;;;;;7.80;4.35;;;;;;;;;;5074299;28;20198;-63
2023/05/27 05:41:05;;;;;;;7.30;4.05;;;;;;;;;;5087742;28;20245;-62
2023/05/27 05:43:32;;;;;;;6.57;4.22;;;;;;;;;;5081204;28;20208;-61
2023/05/27 05:46:01;;;;;;;7.65;4.35;;;;;;;;;;5085708;28;20208;-62
2023/05/27 05:48:29;;;;;;;7.47;5.13;;;;;;;;;;5086536;28;20696;-61
2023/05/27 05:50:56;;;;;;;6.78;4.32;;;;;;;;;;5079219;28;20216;-62
2023/05/27 05:53:24;;;;;;;9.43;4.72;;;;;;;;;;5083872;28;20202;-62
2023/05/27 05:55:51;;;;;;;6.75;4.38;;;;;;;;;;5087252;28;20240;-64
2023/05/27 05:58:19;;;;;;;7.00;4.25;;;;;;;;;;5091674;28;20402;-61
2023/05/27 06:00:46;;;;;;;8.00;4.90;;;;;;;;;;5091618;28;20232;-63
2023/05/27 06:03:13;;;;;;;14.85;4.88;;;;;;;;;;5089803;28;20662;-63
2023/05/27 06:05:41;;;;;;;10.32;4.88;;;;;;;;;;5079946;28;20216;-62
2023/05/27 06:08:08;;;;;;;8.48;4.85;;;;;;;;;;5083296;28;20300;-60
2023/05/27 06:10:36;;;;;;;6.88;5.03;;;;;;;;;;5077796;28;20232;-60
2023/05/27 06:13:04;;;;;;;8.02;4.47;;;;;;;;;;5083403;28;20220;-60
2023/05/27 06:15:31;;;;;;;9.57;4.95;;;;;;;;;;5077080;28;20767;-61
2023/05/27 06:17:59;;;;;;;9.70;5.30;;;;;;;;;;5081688;28;20204;-60
2023/05/27 06:20:27;;;;;;;10.43;5.68;;;;;;;;;;5094058;28;20217;-61
2023/05/27 06:22:54;;;;;;;11.80;5.40;;;;;;;;;;5096076;28;20209;-61
2023/05/27 06:25:21;;;;;;;10.38;5.60;;;;;;;;;;5095134;28;20205;-60
2023/05/27 06:27:49;;;;;;;13.90;6.28;;;;;;;;;;5087217;28;20208;-61
2023/05/27 06:30:16;;;;;;;9.32;5.95;;;;;;;;;;5091607;28;20225;-61
2023/05/27 06:32:45;;;;;;;9.02;5.82;;;;;;;;;;5078848;28;20205;-62
2023/05/27 06:35:12;;;;;;;8.20;5.82;;;;;;;;;;5084164;28;20243;-60
2023/05/27 06:37:39;;;;;;;10.40;5.90;;;;;;;;;;5088953;28;20208;-61
2023/05/27 06:40:07;;;;;;;8.95;6.13;;;;;;;;;;5079775;28;20278;-62
2023/05/27 06:42:34;;;;;;;9.30;5.32;;;;;;;;;;5063270;28;20208;-60
2023/05/27 06:45:01;;;;;;;12.85;5.85;;;;;;;;;;5077930;28;20210;-60
2023/05/27 06:47:28;;;;;;;12.18;5.95;;;;;;;;;;5078728;28;20254;-61
2023/05/27 06:49:56;;;;;;;10.95;6.20;;;;;;;;;;5081427;28;20225;-60
2023/05/27 06:52:23;;;;;;;11.05;6.45;;;;;;;;;;5083519;28;20258;-60
2023/05/27 06:54:50;;;;;;;11.75;6.25;;;;;;;;;;5091594;28;20316;-61
2023/05/27 06:57:17;;;;;;;12.10;6.30;;;;;;;;;;5092516;28;20254;-60
2023/05/27 06:59:45;;;;;;;12.52;6.65;;;;;;;;;;5084735;28;20305;-62
2023/05/27 07:02:12;;;;;;;10.55;6.32;;;;;;;;;;5089367;28;20337;-60
2023/05/27 07:04:40;;;;;;;10.63;6.50;;;;;;;;;;5073673;28;20213;-62
2023/05/27 07:07:07;;;;;;;10.38;5.75;;;;;;;;;;5073041;28;20755;-60
2023/05/27 07:09:34;;;;;;;10.13;6.43;;;;;;;;;;5073773;28;20782;-59
2023/05/27 07:12:02;;;;;;;12.25;6.05;;;;;;;;;;5076378;28;20205;-60
2023/05/27 07:14:29;;;;;;;10.35;6.55;;;;;;;;;;5075994;28;20212;-63
2023/05/27 07:16:57;;;;;;;10.13;6.40;;;;;;;;;;5068419;28;20232;-60
2023/05/27 07:19:24;;;;;;;15.65;6.50;;;;;;;;;;5073664;28;20634;-61
2023/05/27 07:21:51;;;;;;;9.38;6.18;;;;;;;;;;5076178;28;20205;-63
2023/05/27 07:24:19;;;;;;;9.40;6.35;;;;;;;;;;5072621;28;20707;-61
2023/05/27 07:26:49;;;;;;;10.63;6.40;;;;;;;;;;5069643;28;20213;-61
2023/05/27 07:29:16;;;;;;;12.50;7.25;;;;;;;;;;5075471;28;20316;-63
2023/05/27 07:31:44;;;;;;;9.63;6.63;;;;;;;;;;5073667;28;20212;-62
2023/05/27 07:34:11;;;;;;;11.00;6.78;;;;;;;;;;5069423;28;20239;-61
2023/05/27 07:36:38;;;;;;;10.05;7.07;;;;;;;;;;5072481;28;20580;-62
2023/05/27 07:39:06;;;;;;;9.98;6.82;;;;;;;;;;5076306;28;20221;-62
2023/05/27 07:41:34;;;;;;;13.30;7.75;;;;;;;;;;5091541;28;20205;-61
2023/05/27 07:44:01;;;;;;;9.77;7.07;;;;;;;;;;5076781;28;20222;-61
2023/05/27 07:46:30;;;;;;;10.50;7.22;;;;;;;;;;5075352;28;20200;-62
2023/05/27 07:48:57;;;;;;;13.77;6.88;;;;;;;;;;5069979;28;20364;-62
2023/05/27 07:51:25;;;;;;;12.18;6.55;;;;;;;;;;5077308;28;20209;-61
2023/05/27 07:53:52;;;;;;;9.95;6.95;;;;;;;;;;5059412;28;20227;-62
2023/05/27 07:56:19;;;;;;;13.02;6.70;;;;;;;;;;5082420;28;20892;-62
2023/05/27 07:58:46;;;;;;;10.18;6.80;;;;;;;;;;5078079;28;20201;-62
2023/05/27 08:01:14;;;;;;;12.27;7.35;;;;;;;;;;5085157;28;20247;-61
2023/05/27 08:03:41;;;;;;;9.52;7.22;;;;;;;;;;5081663;28;20307;-62
2023/05/27 08:06:09;;;;;;;13.10;7.18;;;;;;;;;;5082082;28;20201;-62
2023/05/27 08:08:39;;;;;;;10.55;7.30;;;;;;;;;;5079028;28;20200;-63
2023/05/27 08:11:06;;;;;;;13.70;7.15;;;;;;;;;;5076066;28;20671;-60
2023/05/27 08:13:34;;;;;;;10.02;6.20;;;;;;;;;;5063616;28;21219;-60
2023/05/27 08:16:01;;;;;;;10.93;6.88;;;;;;;;;;5074263;28;20221;-62
2023/05/27 08:18:28;;;;;;;12.68;6.75;;;;;;;;;;5081509;28;20201;-59
2023/05/27 08:20:56;;;;;;;8.35;6.22;;;;;;;;;;5084495;28;20236;-61
2023/05/27 08:23:25;;;;;;;11.63;6.53;;;;;;;;;;5074050;28;20657;-62
2023/05/27 08:25:52;;;;;;;11.38;6.85;;;;;;;;;;5079561;28;20841;-61
2023/05/27 08:28:19;;;;;;;13.57;6.63;;;;;;;;;;5080793;28;20594;-61
2023/05/27 08:30:47;;;;;;;11.65;7.03;;;;;;;;;;5080795;28;20236;-62
2023/05/27 08:33:14;;;;;;;10.25;6.82;;;;;;;;;;5079797;28;20624;-61
2023/05/27 08:35:41;;;;;;;7.78;5.85;;;;;;;;;;5067566;28;20831;-63
2023/05/27 08:38:09;;;;;;;12.02;7.30;;;;;;;;;;5082829;28;20563;-60
2023/05/27 08:40:36;;;;;;;12.93;7.32;;;;;;;;;;5079917;28;20224;-60
2023/05/27 08:43:05;;;;;;;10.60;6.55;;;;;;;;;;5077558;28;20213;-61
2023/05/27 08:45:33;;;;;;;9.32;6.43;;;;;;;;;;5081785;28;20208;-61
2023/05/27 08:48:00;;;;;;;10.68;7.00;;;;;;;;;;5075337;28;20205;-61
2023/05/27 08:50:28;;;;;;;9.95;6.72;;;;;;;;;;5078904;28;20227;-61
2023/05/27 08:52:55;;;;;;;11.40;6.45;;;;;;;;;;5073498;28;20245;-59
2023/05/27 08:55:23;;;;;;;11.27;6.75;;;;;;;;;;5080559;28;20285;-61
2023/05/27 08:57:51;;;;;;;11.30;6.53;;;;;;;;;;5082444;28;20588;-61
2023/05/27 09:00:19;;;;;;;12.27;6.47;;;;;;;;;;5080940;28;21023;-60
2023/05/27 09:02:47;;;;;;;10.65;6.35;;;;;;;;;;5080803;28;20197;-61
2023/05/27 09:05:15;;;;;;;10.02;6.43;;;;;;;;;;5090262;28;20209;-60
2023/05/27 09:07:43;;;;;;;13.95;6.07;;;;;;;;;;5065714;28;20654;-62
2023/05/27 09:10:11;;;;;;;11.13;6.80;;;;;;;;;;5072966;28;20225;-60
2023/05/27 09:12:38;;;;;;;10.48;6.30;;;;;;;;;;5087198;28;20643;-62
2023/05/27 09:15:06;;;;;;;9.90;5.47;;;;;;;;;;5080725;28;20254;-60
2023/05/27 09:17:33;;;;;;;8.48;5.70;;;;;;;;;;5075534;28;20229;-61
2023/05/27 09:20:00;;;;;;;7.93;5.45;;;;;;;;;;5074465;28;20301;-61
2023/05/27 09:22:31;;;;;;;9.70;6.18;;;;;;;;;;5074035;28;20704;-60
2023/05/27 09:24:59;;;;;;;13.18;5.72;;;;;;;;;;5070429;28;20196;-60
2023/05/27 09:27:26;;;;;;;11.90;5.78;;;;;;;;;;5075759;28;20204;-61
2023/05/27 09:29:55;;;;;;;8.05;6.07;;;;;;;;;;5077995;28;20229;-61
2023/05/27 09:32:30;;;;;;;9.57;5.70;;;;;;;;;;5076617;28;20216;-63
2023/05/27 09:34:58;;;;;;;8.95;5.65;;;;;;;;;;5054399;28;20205;-62
2023/05/27 09:37:33;;;;;;;8.55;5.60;;;;;;;;;;5073118;28;20578;-61
2023/05/27 09:40:04;;;;;;;11.10;6.57;;;;;;;;;;5065173;28;20271;-62
2023/05/27 09:42:50;;;;;;;8.40;5.95;;;;;;;;;;5081768;28;20201;-61
2023/05/27 09:45:20;;;;;;;8.30;5.75;;;;;;;;;;5086073;28;20266;-62
2023/05/27 09:47:51;;;;;;;10.00;5.80;;;;;;;;;;5073545;28;20221;-61
2023/05/27 09:50:20;;;;;;;11.07;6.00;;;;;;;;;;5079014;28;20464;-64
2023/05/27 09:52:48;;;;;;;10.50;5.72;;;;;;;;;;5081505;28;20202;-62
2023/05/27 09:55:35;;;;;;;8.77;5.28;;;;;;;;;;5080101;28;20212;-62
2023/05/27 09:58:03;;;;;;;9.10;5.57;;;;;;;;;;5077776;28;20223;-60
2023/05/27 10:00:31;;;;;;;8.23;5.63;;;;;;;;;;5065012;28;20358;-61
2023/05/27 10:03:02;;;;;;;9.05;5.28;;;;;;;;;;5073969;28;20552;-62
2023/05/27 10:05:30;;;;;;;11.13;5.80;;;;;;;;;;5073896;28;20193;-62
2023/05/27 10:07:57;;;;;;;10.35;5.45;;;;;;;;;;5084223;28;20251;-63
2023/05/27 10:10:28;;;;;;;8.35;5.43;;;;;;;;;;5058185;28;20224;-59
2023/05/27 10:12:56;;;;;;;11.27;6.03;;;;;;;;;;5075318;28;20576;-62
2023/05/27 10:15:33;;;;;;;10.57;5.97;;;;;;;;;;5074573;28;20316;-63
2023/05/27 10:18:03;;;;;;;7.90;5.65;;;;;;;;;;5058654;28;20611;-62
2023/05/27 10:20:30;;;;;;;10.45;5.30;;;;;;;;;;5075829;28;20751;-61
2023/05/27 10:23:10;;;;;;;7.15;4.88;;;;;;;;;;5076273;28;20293;-62
2023/05/27 10:25:40;;;;;;;7.97;5.75;;;;;;;;;;5077657;28;20685;-61
2023/05/27 10:28:08;;;;;;;10.73;6.20;;;;;;;;;;5061448;28;20201;-63
2023/05/27 10:30:45;;;;;;;9.90;5.60;;;;;;;;;;5074863;28;20890;-63
2023/05/27 10:33:13;;;;;;;8.90;5.40;;;;;;;;;;5068700;28;20200;-60
2023/05/27 10:35:41;;;;;;;10.68;5.80;;;;;;;;;;5059427;28;20213;-61
2023/05/27 10:38:18;;;;;;;8.50;5.60;;;;;;;;;;5060288;28;20212;-62
2023/05/27 10:40:47;;;;;;;9.43;6.25;;;;;;;;;;5076247;28;20387;-63
2023/05/27 10:43:16;;;;;;;9.27;5.65;;;;;;;;;;5083376;28;20206;-62
2023/05/27 10:45:44;;;;;;;8.32;5.47;;;;;;;;;;5080926;28;20207;-63
2023/05/27 10:48:16;;;;;;;6.97;5.22;;;;;;;;;;5072538;28;20205;-63
2023/05/27 10:50:50;;;;;;;6.75;5.47;;;;;;;;;;5071319;28;20270;-61
2023/05/27 10:53:21;;;;;;;8.98;5.22;;;;;;;;;;5080584;28;20208;-63
2023/05/27 10:55:50;;;;;;;8.55;5.43;;;;;;;;;;5082941;28;20570;-63
2023/05/27 10:58:17;;;;;;;8.63;5.75;;;;;;;;;;5092950;28;20212;-62
2023/05/27 11:00:52;;;;;;;8.38;5.80;;;;;;;;;;5086501;28;20236;-61
2023/05/27 11:03:23;;;;;;;13.18;5.95;;;;;;;;;;5080328;28;20274;-60
2023/05/27 11:06:03;;;;;;;8.65;5.65;;;;;;;;;;5084066;28;20722;-62
2023/05/27 11:08:30;;;;;;;7.20;5.50;;;;;;;;;;5084078;28;20205;-61
2023/05/27 11:11:02;;;;;;;7.68;5.45;;;;;;;;;;5063494;28;20635;-61
2023/05/27 11:13:36;;;;;;;7.72;5.47;;;;;;;;;;5086448;28;20197;-62
2023/05/27 11:16:05;;;;;;;8.85;5.55;;;;;;;;;;5069613;28;20705;-61
2023/05/27 11:18:38;;;;;;;9.35;6.20;;;;;;;;;;5086170;28;20284;-63
2023/05/27 11:21:07;;;;;;;10.85;6.18;;;;;;;;;;5075311;28;20291;-60
2023/05/27 11:23:35;;;;;;;8.55;5.53;;;;;;;;;;5080882;28;20205;-61
2023/05/27 11:26:02;;;;;;;9.98;5.93;;;;;;;;;;5086563;28;20349;-60
2023/05/27 11:28:30;;;;;;;10.52;4.97;;;;;;;;;;5085497;28;20266;-61
2023/05/27 11:31:03;;;;;;;8.85;5.80;;;;;;;;;;5086811;28;21269;-61
2023/05/27 11:33:32;;;;;;;7.43;5.43;;;;;;;;;;5085985;28;20233;-60
2023/05/27 11:36:05;;;;;;;6.38;5.40;;;;;;;;;;5089278;28;20208;-61
2023/05/27 11:38:32;;;;;;;9.43;5.50;;;;;;;;;;5080847;28;20231;-60
2023/05/27 11:41:07;;;;;;;10.20;5.75;;;;;;;;;;5087283;28;20228;-61
2023/05/27 11:43:34;;;;;;;10.02;5.95;;;;;;;;;;5079445;28;20193;-60
2023/05/27 11:46:05;;;;;;;7.30;5.55;;;;;;;;;;5081973;28;20271;-58
2023/05/27 11:48:32;;;;;;;7.43;5.20;;;;;;;;;;5090873;28;20250;-62
2023/05/27 11:50:59;;;;;;;7.88;5.75;;;;;;;;;;5084731;28;20651;-62
2023/05/27 11:53:29;;;;;;;8.85;5.32;;;;;;;;;;5087744;28;20205;-61
2023/05/27 11:55:57;;;;;;;8.18;5.63;;;;;;;;;;5084769;28;20197;-61
2023/05/27 11:58:24;;;;;;;8.10;5.32;;;;;;;;;;5086397;28;20204;-62
2023/05/27 12:00:52;;;;;;;8.73;5.30;;;;;;;;;;5082460;28;20311;-61
2023/05/27 12:03:19;;;;;;;9.23;5.82;;;;;;;;;;5085080;28;20658;-62
2023/05/27 12:05:47;;;;;;;8.93;5.57;;;;;;;;;;5079635;28;20203;-63
2023/05/27 12:08:14;;;;;;;7.97;5.60;;;;;;;;;;5087277;28;20243;-61
2023/05/27 12:10:42;;;;;;;10.07;5.95;;;;;;;;;;5087314;28;20600;-61
2023/05/27 12:13:09;;;;;;;9.25;5.72;;;;;;;;;;5087225;28;20203;-60
2023/05/27 12:15:36;;;;;;;10.23;5.57;;;;;;;;;;5058298;28;20196;-63
2023/05/27 12:18:03;;;;;;;11.48;5.40;;;;;;;;;;5074635;28;20233;-61
2023/05/27 12:20:31;;;;;;;13.90;5.35;;;;;;;;;;5076613;28;20229;-62
2023/05/27 12:22:59;;;;;;;6.47;5.03;;;;;;;;;;5077934;28;20287;-60
2023/05/27 12:25:27;;;;;;;8.02;5.72;;;;;;;;;;5062185;28;20631;-60
2023/05/27 12:27:54;;;;;;;8.63;5.07;;;;;;;;;;5086824;28;20246;-61
2023/05/27 12:30:21;;;;;;;8.23;5.63;;;;;;;;;;5073037;28;20221;-61
2023/05/27 12:32:48;;;;;;;8.40;5.30;;;;;;;;;;5061900;28;20231;-62
2023/05/27 12:35:16;;;;;;;10.65;5.25;;;;;;;;;;5083123;28;20209;-62
2023/05/27 12:37:43;;;;;;;9.80;5.90;;;;;;;;;;5085029;28;20232;-62
2023/05/27 12:40:14;;;;;;;7.55;5.22;;;;;;;;;;5083083;28;20232;-63
2023/05/27 12:42:42;;;;;;;8.48;5.38;;;;;;;;;;5081665;28;20598;-62
2023/05/27 12:45:09;;;;;;;38.40;7.93;;;;;;;;;;5071915;28;20448;-62
2023/05/27 12:47:37;;;;;;;8.52;5.57;;;;;;;;;;5063522;28;20196;-62
2023/05/27 12:50:05;;;;;;;;;;;;;;;;;;5070785;28;20130;-62
2023/05/27 12:52:32;;;;;;;;;;;;;;;;;;5072373;28;19971;-62
2023/05/27 12:55:00;;;;;;;;;;;;;;;;;;5072063;28;20428;-63
2023/05/27 12:57:27;;;;;;;;;;;;;;;;;;5084306;28;19978;-63
2023/05/27 12:59:54;;;;;;;;;;;;;;;;;;5079222;28;19985;-63
2023/05/27 13:02:21;;;;;;;;;;;;;;;;;;5077378;28;20249;-64
2023/05/27 13:04:50;;;;;;;;;;;;;;;;;;5075183;28;20021;-63
2023/05/27 13:07:17;;;;;;;;;;;;;;;;;;5075128;28;19927;-62
2023/05/27 13:09:46;;;;;;;;;;;;;;;;;;5077062;28;19924;-62
2023/05/27 13:12:13;;;;;;;;;;;;;;;;;;5060680;28;20009;-63
2023/05/27 13:14:42;;;;;;;;;;;;;;;;;;5073971;28;19924;-62
2023/05/27 13:17:09;;;;;;;;;;;;;;;;;;5078401;28;19920;-62
2023/05/27 13:19:37;;;;;;;;;;;;;;;;;;5080465;28;19923;-62
2023/05/27 13:22:04;;;;;;;;;;;;;;;;;;5075866;28;19927;-62
2023/05/27 13:24:31;;;;;;;;;;;;;;;;;;5076790;28;19929;-61
2023/05/27 13:26:58;;;;;;;;;;;;;;;;;;5074289;28;19932;-61
2023/05/27 13:29:25;;;;;;;;;;;;;;;;;;5076803;28;19928;-62
2023/05/27 13:31:52;;;;;;;;;;;;;;;;;;5080338;28;20302;-63
2023/05/27 13:34:20;;;;;;;;;;;;;;;;;;5079477;28;19931;-61
2023/05/27 13:36:47;;;;;;;;;;;;;;;;;;5078329;28;19928;-61
2023/05/27 13:39:17;;;;;;;;;;;;;;;;;;5063858;28;19975;-61
2023/05/27 13:41:45;;;;;;;;;;;;;;;;;;5073779;28;19928;-61
2023/05/27 13:44:12;;;;;;;;;;;;;;;;;;5075737;28;19928;-61
2023/05/27 13:46:39;;;;;;;;;;;;;;;;;;5062677;28;19932;-61
2023/05/27 13:49:06;;;;;;;;;;;;;;;;;;5079480;28;20294;-62
2023/05/27 13:51:34;;;;;;;9.75;5.13;;;;;;;;;;5079999;28;20030;-61
2023/05/27 13:54:01;;;;;;;6.82;5.32;;;;;;;;;;5075875;28;20200;-62
2023/05/27 13:56:28;;;;;;;6.35;4.38;;;;;;;;;;5076560;28;20344;-62
2023/05/27 13:58:55;;;;;;;6.70;4.80;;;;;;;;;;5054499;28;20229;-61
2023/05/27 14:01:23;;;;;;;7.22;4.97;;;;;;;;;;5076287;28;20255;-61
2023/05/27 14:03:50;;;;;;;6.70;4.88;;;;;;;;;;5074184;28;20753;-62
2023/05/27 14:06:17;;;;;;;9.27;5.90;;;;;;;;;;5073050;28;20196;-61
2023/05/27 14:08:45;;;;;;;10.73;5.85;;;;;;;;;;5070011;28;20292;-62
2023/05/27 14:11:13;;;;;;;9.40;6.80;;;;;;;;;;5074131;28;20201;-63
2023/05/27 14:13:41;;;;;;;9.70;6.75;;;;;;;;;;5071797;28;20233;-62
2023/05/27 14:16:09;;;;;;;7.28;5.50;;;;;;;;;;5073333;28;20216;-61
2023/05/27 14:18:36;;;;;;;8.10;5.63;;;;;;;;;;5077054;28;20266;-61
2023/05/27 14:21:03;;;;;;;7.22;5.57;;;;;;;;;;5079410;28;20274;-62
2023/05/27 14:23:31;;;;;;;9.63;5.95;;;;;;;;;;5059716;28;20277;-61
2023/05/27 14:25:58;;;;;;;6.97;5.10;;;;;;;;;;5072729;28;20344;-62
2023/05/27 14:28:25;;;;;;;8.25;6.03;;;;;;;;;;5077539;28;23466;-60
2023/05/27 14:30:53;;;;;;;7.65;5.88;;;;;;;;;;5074264;28;20225;-61
2023/05/27 14:33:20;;;;;;;7.78;5.97;;;;;;;;;;5064884;28;20205;-62
2023/05/27 14:35:47;;;;;;;8.20;5.15;;;;;;;;;;5059637;28;20201;-62
2023/05/27 14:38:16;;;;;;;8.73;5.53;;;;;;;;;;5078418;28;20605;-61
2023/05/27 14:40:44;;;;;;;6.70;4.90;;;;;;;;;;5082484;28;20273;-61
2023/05/27 14:43:14;;;;;;;7.43;5.38;;;;;;;;;;5079408;28;20205;-61
2023/05/27 14:45:42;;;;;;;8.07;5.63;;;;;;;;;;5071307;28;20612;-60
2023/05/27 14:48:09;;;;;;;10.85;5.38;;;;;;;;;;5073584;28;20229;-61
2023/05/27 14:50:37;;;;;;;8.95;5.15;;;;;;;;;;5076776;28;20217;-60